sensor_id;sensor_type;location;lat;lon;timestamp;temperature;humidity
58096;DHT22;43908;53.038;6.666;2022-09-09T00:00:14;13.90;99.90
58096;DHT22;43908;53.038;6.666;2022-09-09T00:02:41;13.90;99.90
58096;DHT22;43908;53.038;6.666;2022-09-09T00:07:54;13.80;99.90
58096;DHT22;43908;53.038;6.666;2022-09-09T00:10:26;13.80;99.90
58096;DHT22;43908;53.038;6.666;2022-09-09T00:21:23;13.70;99.90
58096;DHT22;43908;53.038;6.666;2022-09-09T00:23:53;13.70;99.90
58096;DHT22;43908;53.038;6.666;2022-09-09T00:26:29;13.60;99.90
58096;DHT22;43908;53.038;6.666;2022-09-09T00:31:35;13.60;99.90
58096;DHT22;43908;53.038;6.666;2022-09-09T00:34:03;13.50;99.90
58096;DHT22;43908;53.038;6.666;2022-09-09T00:36:30;13.50;99.90
58096;DHT22;43908;53.038;6.666;2022-09-09T00:38:58;13.50;99.90
58096;DHT22;43908;53.038;6.666;2022-09-09T00:44:25;13.50;99.90
58096;DHT22;43908;53.038;6.666;2022-09-09T00:46:59;13.50;99.90
58096;DHT22;43908;53.038;6.666;2022-09-09T00:49:39;13.50;99.90
58096;DHT22;43908;53.038;6.666;2022-09-09T00:52:15;13.40;99.90
58096;DHT22;43908;53.038;6.666;2022-09-09T00:55:34;13.40;99.90
58096;DHT22;43908;53.038;6.666;2022-09-09T00:57:30;13.40;99.90
58096;DHT22;43908;53.038;6.666;2022-09-09T01:02:26;13.40;99.90
58096;DHT22;43908;53.038;6.666;2022-09-09T01:04:53;13.40;99.90
58096;DHT22;43908;53.038;6.666;2022-09-09T01:07:20;13.30;99.90
58096;DHT22;43908;53.038;6.666;2022-09-09T01:09:56;13.30;99.90
58096;DHT22;43908;53.038;6.666;2022-09-09T01:14:52;13.30;99.90
58096;DHT22;43908;53.038;6.666;2022-09-09T01:17:20;13.30;99.90
58096;DHT22;43908;53.038;6.666;2022-09-09T01:27:56;13.20;99.90
58096;DHT22;43908;53.038;6.666;2022-09-09T01:30:22;13.20;99.90
58096;DHT22;43908;53.038;6.666;2022-09-09T01:32:49;13.20;99.90
58096;DHT22;43908;53.038;6.666;2022-09-09T01:37:47;13.20;99.90
58096;DHT22;43908;53.038;6.666;2022-09-09T01:40:12;13.20;99.90
58096;DHT22;43908;53.038;6.666;2022-09-09T01:42:38;13.20;99.90
58096;DHT22;43908;53.038;6.666;2022-09-09T01:45:03;13.20;99.90
58096;DHT22;43908;53.038;6.666;2022-09-09T01:47:29;13.20;99.90
58096;DHT22;43908;53.038;6.666;2022-09-09T01:49:54;13.20;99.90
58096;DHT22;43908;53.038;6.666;2022-09-09T01:52:20;13.20;99.90
58096;DHT22;43908;53.038;6.666;2022-09-09T01:54:45;13.20;99.90
58096;DHT22;43908;53.038;6.666;2022-09-09T02:02:25;13.30;99.90
58096;DHT22;43908;53.038;6.666;2022-09-09T02:04:52;13.30;99.90
58096;DHT22;43908;53.038;6.666;2022-09-09T02:09:45;13.40;99.90
58096;DHT22;43908;53.038;6.666;2022-09-09T02:12:13;13.40;99.90
58096;DHT22;43908;53.038;6.666;2022-09-09T02:14:41;13.40;99.90
58096;DHT22;43908;53.038;6.666;2022-09-09T02:17:08;13.50;99.90
58096;DHT22;43908;53.038;6.666;2022-09-09T02:19:39;13.50;99.90
58096;DHT22;43908;53.038;6.666;2022-09-09T02:22:08;13.60;99.90
58096;DHT22;43908;53.038;6.666;2022-09-09T02:24:35;13.60;99.90
58096;DHT22;43908;53.038;6.666;2022-09-09T02:27:01;13.70;99.90
58096;DHT22;43908;53.038;6.666;2022-09-09T02:29:29;13.70;99.90
58096;DHT22;43908;53.038;6.666;2022-09-09T02:31:56;13.80;99.90
58096;DHT22;43908;53.038;6.666;2022-09-09T02:34:22;13.80;99.90
58096;DHT22;43908;53.038;6.666;2022-09-09T02:36:49;13.90;99.90
58096;DHT22;43908;53.038;6.666;2022-09-09T02:39:15;13.90;99.90
58096;DHT22;43908;53.038;6.666;2022-09-09T02:41:41;14.00;99.90
58096;DHT22;43908;53.038;6.666;2022-09-09T02:44:11;14.00;99.90
58096;DHT22;43908;53.038;6.666;2022-09-09T02:46:42;14.10;99.90
58096;DHT22;43908;53.038;6.666;2022-09-09T02:49:25;14.10;99.90
58096;DHT22;43908;53.038;6.666;2022-09-09T02:54:22;14.20;99.90
58096;DHT22;43908;53.038;6.666;2022-09-09T02:56:51;14.20;99.90
58096;DHT22;43908;53.038;6.666;2022-09-09T02:59:20;14.30;99.90
58096;DHT22;43908;53.038;6.666;2022-09-09T03:01:46;14.30;99.90
58096;DHT22;43908;53.038;6.666;2022-09-09T03:04:12;14.30;99.90
58096;DHT22;43908;53.038;6.666;2022-09-09T03:06:38;14.40;99.90
58096;DHT22;43908;53.038;6.666;2022-09-09T03:09:03;14.30;99.90
58096;DHT22;43908;53.038;6.666;2022-09-09T03:11:29;14.40;99.90
58096;DHT22;43908;53.038;6.666;2022-09-09T03:13:54;14.40;99.90
58096;DHT22;43908;53.038;6.666;2022-09-09T03:16:24;14.50;99.90
58096;DHT22;43908;53.038;6.666;2022-09-09T03:18:49;14.50;99.90
58096;DHT22;43908;53.038;6.666;2022-09-09T03:21:15;14.50;99.90
58096;DHT22;43908;53.038;6.666;2022-09-09T03:23:40;14.50;99.90
58096;DHT22;43908;53.038;6.666;2022-09-09T03:26:06;14.60;99.90
58096;DHT22;43908;53.038;6.666;2022-09-09T03:28:32;14.60;99.90
58096;DHT22;43908;53.038;6.666;2022-09-09T03:30:58;14.60;99.90
58096;DHT22;43908;53.038;6.666;2022-09-09T03:33:24;14.60;99.90
58096;DHT22;43908;53.038;6.666;2022-09-09T03:35:49;14.60;99.90
58096;DHT22;43908;53.038;6.666;2022-09-09T03:38:16;14.60;99.90
58096;DHT22;43908;53.038;6.666;2022-09-09T03:40:49;14.60;99.90
58096;DHT22;43908;53.038;6.666;2022-09-09T03:43:14;14.70;99.90
58096;DHT22;43908;53.038;6.666;2022-09-09T03:45:45;14.70;99.90
58096;DHT22;43908;53.038;6.666;2022-09-09T03:48:11;14.70;99.90
58096;DHT22;43908;53.038;6.666;2022-09-09T03:50:37;14.60;99.90
58096;DHT22;43908;53.038;6.666;2022-09-09T03:53:02;14.60;99.90
58096;DHT22;43908;53.038;6.666;2022-09-09T03:55:28;14.70;99.90
58096;DHT22;43908;53.038;6.666;2022-09-09T03:57:53;14.70;99.90
58096;DHT22;43908;53.038;6.666;2022-09-09T04:00:19;14.70;99.90
58096;DHT22;43908;53.038;6.666;2022-09-09T04:02:44;14.70;99.90
58096;DHT22;43908;53.038;6.666;2022-09-09T04:05:10;14.70;99.90
58096;DHT22;43908;53.038;6.666;2022-09-09T04:07:36;14.70;99.90
58096;DHT22;43908;53.038;6.666;2022-09-09T04:10:02;14.70;99.90
58096;DHT22;43908;53.038;6.666;2022-09-09T04:12:27;14.70;99.90
58096;DHT22;43908;53.038;6.666;2022-09-09T04:14:53;14.70;99.90
58096;DHT22;43908;53.038;6.666;2022-09-09T04:17:18;14.70;99.90
58096;DHT22;43908;53.038;6.666;2022-09-09T04:19:43;14.70;99.90
58096;DHT22;43908;53.038;6.666;2022-09-09T04:22:09;14.70;99.90
58096;DHT22;43908;53.038;6.666;2022-09-09T04:24:34;14.70;99.90
58096;DHT22;43908;53.038;6.666;2022-09-09T04:27:01;14.70;99.90
58096;DHT22;43908;53.038;6.666;2022-09-09T04:29:26;14.70;99.90
58096;DHT22;43908;53.038;6.666;2022-09-09T04:31:52;14.70;99.90
58096;DHT22;43908;53.038;6.666;2022-09-09T04:34:18;14.70;99.90
58096;DHT22;43908;53.038;6.666;2022-09-09T04:36:43;14.70;99.90
58096;DHT22;43908;53.038;6.666;2022-09-09T04:39:09;14.60;99.90
58096;DHT22;43908;53.038;6.666;2022-09-09T04:41:34;14.60;99.90
58096;DHT22;43908;53.038;6.666;2022-09-09T04:44:00;14.70;99.90
58096;DHT22;43908;53.038;6.666;2022-09-09T04:46:26;14.70;99.90
58096;DHT22;43908;53.038;6.666;2022-09-09T04:48:51;14.70;99.90
58096;DHT22;43908;53.038;6.666;2022-09-09T04:51:18;14.70;99.90
58096;DHT22;43908;53.038;6.666;2022-09-09T04:53:43;14.60;99.90
58096;DHT22;43908;53.038;6.666;2022-09-09T04:56:10;14.60;99.90
58096;DHT22;43908;53.038;6.666;2022-09-09T04:58:36;14.60;99.90
58096;DHT22;43908;53.038;6.666;2022-09-09T05:01:03;14.60;99.90
58096;DHT22;43908;53.038;6.666;2022-09-09T05:03:28;14.50;99.90
58096;DHT22;43908;53.038;6.666;2022-09-09T05:05:54;14.60;99.90
58096;DHT22;43908;53.038;6.666;2022-09-09T05:08:19;14.60;99.90
58096;DHT22;43908;53.038;6.666;2022-09-09T05:10:46;14.60;99.90
58096;DHT22;43908;53.038;6.666;2022-09-09T05:13:11;14.60;99.90
58096;DHT22;43908;53.038;6.666;2022-09-09T05:15:37;14.60;99.90
58096;DHT22;43908;53.038;6.666;2022-09-09T05:18:02;14.60;99.90
58096;DHT22;43908;53.038;6.666;2022-09-09T05:20:28;14.60;99.90
58096;DHT22;43908;53.038;6.666;2022-09-09T05:22:54;14.50;99.90
58096;DHT22;43908;53.038;6.666;2022-09-09T05:25:20;14.50;99.90
58096;DHT22;43908;53.038;6.666;2022-09-09T05:27:45;14.50;99.90
58096;DHT22;43908;53.038;6.666;2022-09-09T05:30:11;14.50;99.90
58096;DHT22;43908;53.038;6.666;2022-09-09T05:32:36;14.50;99.90
58096;DHT22;43908;53.038;6.666;2022-09-09T05:35:02;14.50;99.90
58096;DHT22;43908;53.038;6.666;2022-09-09T05:37:28;14.50;99.90
58096;DHT22;43908;53.038;6.666;2022-09-09T05:39:55;14.50;99.90
58096;DHT22;43908;53.038;6.666;2022-09-09T05:42:20;14.50;99.90
58096;DHT22;43908;53.038;6.666;2022-09-09T05:44:46;14.50;99.90
58096;DHT22;43908;53.038;6.666;2022-09-09T05:47:11;14.50;99.90
58096;DHT22;43908;53.038;6.666;2022-09-09T05:49:37;14.60;99.90
58096;DHT22;43908;53.038;6.666;2022-09-09T05:52:02;14.60;99.90
58096;DHT22;43908;53.038;6.666;2022-09-09T05:54:29;14.60;99.90
58096;DHT22;43908;53.038;6.666;2022-09-09T05:56:55;14.60;99.90
58096;DHT22;43908;53.038;6.666;2022-09-09T05:59:20;14.60;99.90
58096;DHT22;43908;53.038;6.666;2022-09-09T06:01:46;14.60;99.90
58096;DHT22;43908;53.038;6.666;2022-09-09T06:04:12;14.60;99.90
58096;DHT22;43908;53.038;6.666;2022-09-09T06:06:38;14.70;99.90
58096;DHT22;43908;53.038;6.666;2022-09-09T06:09:05;14.70;99.90
58096;DHT22;43908;53.038;6.666;2022-09-09T06:11:32;14.70;99.90
58096;DHT22;43908;53.038;6.666;2022-09-09T06:13:58;14.70;99.90
58096;DHT22;43908;53.038;6.666;2022-09-09T06:16:25;14.80;99.90
58096;DHT22;43908;53.038;6.666;2022-09-09T06:18:52;14.80;99.90
58096;DHT22;43908;53.038;6.666;2022-09-09T06:21:19;14.90;99.90
58096;DHT22;43908;53.038;6.666;2022-09-09T06:23:45;14.90;99.90
58096;DHT22;43908;53.038;6.666;2022-09-09T06:26:12;15.00;99.90
58096;DHT22;43908;53.038;6.666;2022-09-09T06:28:38;15.00;99.90
58096;DHT22;43908;53.038;6.666;2022-09-09T06:31:04;15.10;99.90
58096;DHT22;43908;53.038;6.666;2022-09-09T06:33:31;15.20;99.90
58096;DHT22;43908;53.038;6.666;2022-09-09T06:35:56;15.30;99.90
58096;DHT22;43908;53.038;6.666;2022-09-09T06:38:22;15.30;99.90
58096;DHT22;43908;53.038;6.666;2022-09-09T06:40:54;15.40;99.90
58096;DHT22;43908;53.038;6.666;2022-09-09T06:43:21;15.50;99.90
58096;DHT22;43908;53.038;6.666;2022-09-09T06:45:56;15.60;99.90
58096;DHT22;43908;53.038;6.666;2022-09-09T06:48:22;15.70;99.90
58096;DHT22;43908;53.038;6.666;2022-09-09T06:50:48;15.70;99.90
58096;DHT22;43908;53.038;6.666;2022-09-09T06:53:18;15.80;99.90
58096;DHT22;43908;53.038;6.666;2022-09-09T06:55:46;15.90;99.90
58096;DHT22;43908;53.038;6.666;2022-09-09T06:58:12;15.80;99.90
58096;DHT22;43908;53.038;6.666;2022-09-09T07:00:37;15.90;99.90
58096;DHT22;43908;53.038;6.666;2022-09-09T07:03:04;15.90;99.90
58096;DHT22;43908;53.038;6.666;2022-09-09T07:05:30;15.90;99.90
58096;DHT22;43908;53.038;6.666;2022-09-09T07:07:56;16.00;99.90
58096;DHT22;43908;53.038;6.666;2022-09-09T07:10:21;16.00;99.90
58096;DHT22;43908;53.038;6.666;2022-09-09T07:12:50;16.00;99.90
58096;DHT22;43908;53.038;6.666;2022-09-09T07:15:16;16.10;99.90
58096;DHT22;43908;53.038;6.666;2022-09-09T07:17:44;16.20;99.90
58096;DHT22;43908;53.038;6.666;2022-09-09T07:20:09;16.30;99.90
58096;DHT22;43908;53.038;6.666;2022-09-09T07:22:34;16.50;99.90
58096;DHT22;43908;53.038;6.666;2022-09-09T07:25:00;16.60;99.90
58096;DHT22;43908;53.038;6.666;2022-09-09T07:27:27;16.70;99.90
58096;DHT22;43908;53.038;6.666;2022-09-09T07:29:53;16.90;99.90
58096;DHT22;43908;53.038;6.666;2022-09-09T07:32:19;17.10;99.90
58096;DHT22;43908;53.038;6.666;2022-09-09T07:34:45;17.40;99.90
58096;DHT22;43908;53.038;6.666;2022-09-09T07:37:11;17.40;99.90
58096;DHT22;43908;53.038;6.666;2022-09-09T07:39:37;17.40;99.90
58096;DHT22;43908;53.038;6.666;2022-09-09T07:42:03;17.50;99.90
58096;DHT22;43908;53.038;6.666;2022-09-09T07:44:30;17.40;99.90
58096;DHT22;43908;53.038;6.666;2022-09-09T07:46:57;17.50;99.90
58096;DHT22;43908;53.038;6.666;2022-09-09T07:49:23;17.50;99.90
58096;DHT22;43908;53.038;6.666;2022-09-09T07:51:48;17.50;99.90
58096;DHT22;43908;53.038;6.666;2022-09-09T07:54:15;17.60;99.90
58096;DHT22;43908;53.038;6.666;2022-09-09T07:56:41;17.60;99.90
58096;DHT22;43908;53.038;6.666;2022-09-09T07:59:08;17.70;99.90
58096;DHT22;43908;53.038;6.666;2022-09-09T08:01:39;17.60;99.90
58096;DHT22;43908;53.038;6.666;2022-09-09T08:04:05;17.70;99.90
58096;DHT22;43908;53.038;6.666;2022-09-09T08:06:34;17.70;99.90
58096;DHT22;43908;53.038;6.666;2022-09-09T08:08:59;17.80;99.90
58096;DHT22;43908;53.038;6.666;2022-09-09T08:11:26;17.70;99.90
58096;DHT22;43908;53.038;6.666;2022-09-09T08:13:52;17.80;99.90
58096;DHT22;43908;53.038;6.666;2022-09-09T08:16:19;17.80;99.90
58096;DHT22;43908;53.038;6.666;2022-09-09T08:18:47;17.90;99.90
58096;DHT22;43908;53.038;6.666;2022-09-09T08:21:14;17.90;99.90
58096;DHT22;43908;53.038;6.666;2022-09-09T08:23:41;17.90;99.90
58096;DHT22;43908;53.038;6.666;2022-09-09T08:26:11;17.90;99.90
58096;DHT22;43908;53.038;6.666;2022-09-09T08:28:37;17.80;99.90
58096;DHT22;43908;53.038;6.666;2022-09-09T08:31:06;17.80;99.90
58096;DHT22;43908;53.038;6.666;2022-09-09T08:33:32;17.80;99.90
58096;DHT22;43908;53.038;6.666;2022-09-09T08:35:58;17.80;99.90
58096;DHT22;43908;53.038;6.666;2022-09-09T08:38:24;17.80;99.90
58096;DHT22;43908;53.038;6.666;2022-09-09T08:40:49;17.70;99.90
58096;DHT22;43908;53.038;6.666;2022-09-09T08:43:19;17.90;99.90
58096;DHT22;43908;53.038;6.666;2022-09-09T08:45:56;18.00;99.90
58096;DHT22;43908;53.038;6.666;2022-09-09T08:50:57;18.30;99.90
58096;DHT22;43908;53.038;6.666;2022-09-09T08:53:34;18.40;99.90
58096;DHT22;43908;53.038;6.666;2022-09-09T08:56:06;18.40;99.90
58096;DHT22;43908;53.038;6.666;2022-09-09T08:58:34;18.50;99.90
58096;DHT22;43908;53.038;6.666;2022-09-09T09:03:37;18.60;99.90
58096;DHT22;43908;53.038;6.666;2022-09-09T09:08:35;18.80;99.90
58096;DHT22;43908;53.038;6.666;2022-09-09T09:11:04;18.90;99.90
58096;DHT22;43908;53.038;6.666;2022-09-09T09:13:35;19.00;99.90
58096;DHT22;43908;53.038;6.666;2022-09-09T09:16:06;19.10;99.90
58096;DHT22;43908;53.038;6.666;2022-09-09T09:18:35;19.20;99.90
58096;DHT22;43908;53.038;6.666;2022-09-09T09:21:15;19.30;99.90
58096;DHT22;43908;53.038;6.666;2022-09-09T09:23:57;19.50;99.90
58096;DHT22;43908;53.038;6.666;2022-09-09T09:26:23;19.60;99.90
58096;DHT22;43908;53.038;6.666;2022-09-09T09:28:52;19.80;99.90
58096;DHT22;43908;53.038;6.666;2022-09-09T09:31:21;20.00;99.90
58096;DHT22;43908;53.038;6.666;2022-09-09T09:33:49;20.10;99.90
58096;DHT22;43908;53.038;6.666;2022-09-09T09:36:15;20.30;99.90
58096;DHT22;43908;53.038;6.666;2022-09-09T09:38:51;20.40;99.90
58096;DHT22;43908;53.038;6.666;2022-09-09T09:41:17;20.40;99.90
58096;DHT22;43908;53.038;6.666;2022-09-09T09:43:54;20.30;99.90
58096;DHT22;43908;53.038;6.666;2022-09-09T09:46:20;20.20;99.90
58096;DHT22;43908;53.038;6.666;2022-09-09T09:48:58;20.10;99.90
58096;DHT22;43908;53.038;6.666;2022-09-09T09:51:24;20.00;99.90
58096;DHT22;43908;53.038;6.666;2022-09-09T09:53:50;19.80;99.90
58096;DHT22;43908;53.038;6.666;2022-09-09T09:56:18;19.90;99.90
58096;DHT22;43908;53.038;6.666;2022-09-09T09:58:51;19.90;99.90
58096;DHT22;43908;53.038;6.666;2022-09-09T10:04:00;20.30;99.90
58096;DHT22;43908;53.038;6.666;2022-09-09T10:06:34;20.40;99.90
58096;DHT22;43908;53.038;6.666;2022-09-09T10:09:00;20.50;99.90
58096;DHT22;43908;53.038;6.666;2022-09-09T10:11:30;20.50;99.90
58096;DHT22;43908;53.038;6.666;2022-09-09T10:21:23;20.60;99.90
58096;DHT22;43908;53.038;6.666;2022-09-09T10:24:15;20.70;99.90
58096;DHT22;43908;53.038;6.666;2022-09-09T10:26:49;20.80;99.90
58096;DHT22;43908;53.038;6.666;2022-09-09T10:31:47;20.70;99.90
58096;DHT22;43908;53.038;6.666;2022-09-09T10:34:24;20.90;99.90
58096;DHT22;43908;53.038;6.666;2022-09-09T10:36:51;21.00;99.90
58096;DHT22;43908;53.038;6.666;2022-09-09T10:39:38;21.10;99.90
58096;DHT22;43908;53.038;6.666;2022-09-09T10:42:07;21.20;99.90
58096;DHT22;43908;53.038;6.666;2022-09-09T10:44:41;21.30;99.90
58096;DHT22;43908;53.038;6.666;2022-09-09T10:52:41;21.50;99.90
58096;DHT22;43908;53.038;6.666;2022-09-09T10:57:41;21.50;99.90
58096;DHT22;43908;53.038;6.666;2022-09-09T11:00:22;21.50;99.90
58096;DHT22;43908;53.038;6.666;2022-09-09T11:05:20;21.60;99.90
58096;DHT22;43908;53.038;6.666;2022-09-09T11:08:00;21.70;99.90
58096;DHT22;43908;53.038;6.666;2022-09-09T11:12:59;21.80;99.90
58096;DHT22;43908;53.038;6.666;2022-09-09T11:15:43;21.70;99.90
58096;DHT22;43908;53.038;6.666;2022-09-09T11:18:14;21.50;99.90
58096;DHT22;43908;53.038;6.666;2022-09-09T11:20:42;21.60;99.90
58096;DHT22;43908;53.038;6.666;2022-09-09T11:23:12;21.70;99.90
58096;DHT22;43908;53.038;6.666;2022-09-09T11:25:39;21.80;99.90
58096;DHT22;43908;53.038;6.666;2022-09-09T11:28:10;21.70;99.90
58096;DHT22;43908;53.038;6.666;2022-09-09T11:41:06;22.00;99.90
58096;DHT22;43908;53.038;6.666;2022-09-09T11:43:39;21.80;99.90
58096;DHT22;43908;53.038;6.666;2022-09-09T11:46:05;21.60;99.90
58096;DHT22;43908;53.038;6.666;2022-09-09T11:48:37;21.60;99.90
58096;DHT22;43908;53.038;6.666;2022-09-09T11:53:33;21.80;99.90
58096;DHT22;43908;53.038;6.666;2022-09-09T11:58:55;22.30;99.90
58096;DHT22;43908;53.038;6.666;2022-09-09T12:04:10;22.40;99.90
58096;DHT22;43908;53.038;6.666;2022-09-09T12:06:44;22.20;99.90
58096;DHT22;43908;53.038;6.666;2022-09-09T12:09:22;22.10;99.90
58096;DHT22;43908;53.038;6.666;2022-09-09T12:11:49;22.00;99.90
58096;DHT22;43908;53.038;6.666;2022-09-09T12:14:22;22.00;99.90
58096;DHT22;43908;53.038;6.666;2022-09-09T12:16:48;22.10;99.90
58096;DHT22;43908;53.038;6.666;2022-09-09T12:19:14;22.20;99.90
58096;DHT22;43908;53.038;6.666;2022-09-09T12:24:10;22.40;99.90
58096;DHT22;43908;53.038;6.666;2022-09-09T12:31:46;22.40;99.90
58096;DHT22;43908;53.038;6.666;2022-09-09T12:34:37;22.50;99.60
58096;DHT22;43908;53.038;6.666;2022-09-09T12:40:00;22.40;99.90
58096;DHT22;43908;53.038;6.666;2022-09-09T12:42:27;22.40;99.90
58096;DHT22;43908;53.038;6.666;2022-09-09T12:47:18;22.50;99.60
58096;DHT22;43908;53.038;6.666;2022-09-09T12:49:46;22.60;99.90
58096;DHT22;43908;53.038;6.666;2022-09-09T12:52:17;22.80;98.80
58096;DHT22;43908;53.038;6.666;2022-09-09T12:54:45;22.80;99.40
58096;DHT22;43908;53.038;6.666;2022-09-09T12:57:12;22.80;99.20
58096;DHT22;43908;53.038;6.666;2022-09-09T12:59:39;22.60;99.90
58096;DHT22;43908;53.038;6.666;2022-09-09T13:02:15;22.70;99.90
58096;DHT22;43908;53.038;6.666;2022-09-09T13:04:41;22.80;99.90
58096;DHT22;43908;53.038;6.666;2022-09-09T13:07:07;22.80;98.00
58096;DHT22;43908;53.038;6.666;2022-09-09T13:09:35;22.70;99.30
58096;DHT22;43908;53.038;6.666;2022-09-09T13:12:00;22.50;99.50
58096;DHT22;43908;53.038;6.666;2022-09-09T13:14:31;22.60;99.90
58096;DHT22;43908;53.038;6.666;2022-09-09T13:17:00;22.60;99.50
58096;DHT22;43908;53.038;6.666;2022-09-09T13:19:26;22.40;99.80
58096;DHT22;43908;53.038;6.666;2022-09-09T13:21:54;22.30;99.90
58096;DHT22;43908;53.038;6.666;2022-09-09T13:24:27;22.10;99.80
58096;DHT22;43908;53.038;6.666;2022-09-09T13:26:58;22.00;99.90
58096;DHT22;43908;53.038;6.666;2022-09-09T13:29:24;21.90;99.90
58096;DHT22;43908;53.038;6.666;2022-09-09T13:31:50;21.60;99.90
58096;DHT22;43908;53.038;6.666;2022-09-09T13:34:28;21.30;99.90
58096;DHT22;43908;53.038;6.666;2022-09-09T13:36:55;20.90;99.90
58096;DHT22;43908;53.038;6.666;2022-09-09T13:39:22;20.30;99.90
58096;DHT22;43908;53.038;6.666;2022-09-09T13:41:48;20.40;99.90
58096;DHT22;43908;53.038;6.666;2022-09-09T13:44:17;20.50;99.90
58096;DHT22;43908;53.038;6.666;2022-09-09T13:46:43;20.50;99.90
58096;DHT22;43908;53.038;6.666;2022-09-09T13:51:36;20.80;99.90
58096;DHT22;43908;53.038;6.666;2022-09-09T13:54:05;20.80;99.90
58096;DHT22;43908;53.038;6.666;2022-09-09T13:56:32;21.00;99.90
58096;DHT22;43908;53.038;6.666;2022-09-09T13:58:58;21.30;99.90
58096;DHT22;43908;53.038;6.666;2022-09-09T14:01:23;21.50;99.90
58096;DHT22;43908;53.038;6.666;2022-09-09T14:03:49;21.80;99.90
58096;DHT22;43908;53.038;6.666;2022-09-09T14:06:14;22.10;99.90
58096;DHT22;43908;53.038;6.666;2022-09-09T14:08:40;22.20;99.90
58096;DHT22;43908;53.038;6.666;2022-09-09T14:11:06;22.10;99.90
58096;DHT22;43908;53.038;6.666;2022-09-09T14:13:31;22.00;99.90
58096;DHT22;43908;53.038;6.666;2022-09-09T14:15:57;21.90;99.90
58096;DHT22;43908;53.038;6.666;2022-09-09T14:18:22;21.80;99.90
58096;DHT22;43908;53.038;6.666;2022-09-09T14:20:48;21.60;99.90
58096;DHT22;43908;53.038;6.666;2022-09-09T14:23:15;21.40;99.90
58096;DHT22;43908;53.038;6.666;2022-09-09T14:25:41;21.10;99.90
58096;DHT22;43908;53.038;6.666;2022-09-09T14:28:08;20.90;99.90
58096;DHT22;43908;53.038;6.666;2022-09-09T14:30:34;20.80;99.90
58096;DHT22;43908;53.038;6.666;2022-09-09T14:32:59;20.70;99.90
58096;DHT22;43908;53.038;6.666;2022-09-09T14:35:25;20.80;99.90
58096;DHT22;43908;53.038;6.666;2022-09-09T14:37:50;21.00;99.90
58096;DHT22;43908;53.038;6.666;2022-09-09T14:40:17;21.20;99.90
58096;DHT22;43908;53.038;6.666;2022-09-09T14:42:42;21.50;99.90
58096;DHT22;43908;53.038;6.666;2022-09-09T14:45:08;21.70;99.90
58096;DHT22;43908;53.038;6.666;2022-09-09T14:47:33;21.70;99.90
58096;DHT22;43908;53.038;6.666;2022-09-09T14:49:59;21.90;99.90
58096;DHT22;43908;53.038;6.666;2022-09-09T14:52:26;21.60;99.90
58096;DHT22;43908;53.038;6.666;2022-09-09T14:54:51;21.60;99.90
58096;DHT22;43908;53.038;6.666;2022-09-09T14:57:17;21.50;99.90
58096;DHT22;43908;53.038;6.666;2022-09-09T14:59:42;21.60;99.90
58096;DHT22;43908;53.038;6.666;2022-09-09T15:02:08;21.70;99.90
58096;DHT22;43908;53.038;6.666;2022-09-09T15:04:34;21.80;99.90
58096;DHT22;43908;53.038;6.666;2022-09-09T15:07:00;22.00;99.90
58096;DHT22;43908;53.038;6.666;2022-09-09T15:09:26;22.10;99.90
58096;DHT22;43908;53.038;6.666;2022-09-09T15:11:51;22.10;99.90
58096;DHT22;43908;53.038;6.666;2022-09-09T15:14:17;22.20;99.90
58096;DHT22;43908;53.038;6.666;2022-09-09T15:16:42;22.10;99.90
58096;DHT22;43908;53.038;6.666;2022-09-09T15:19:08;22.10;99.90
58096;DHT22;43908;53.038;6.666;2022-09-09T15:21:35;22.20;99.90
58096;DHT22;43908;53.038;6.666;2022-09-09T15:24:01;22.20;99.90
58096;DHT22;43908;53.038;6.666;2022-09-09T15:26:27;22.20;99.90
58096;DHT22;43908;53.038;6.666;2022-09-09T15:28:52;22.10;99.90
58096;DHT22;43908;53.038;6.666;2022-09-09T15:31:20;21.90;99.90
58096;DHT22;43908;53.038;6.666;2022-09-09T15:33:47;21.80;99.90
58096;DHT22;43908;53.038;6.666;2022-09-09T15:38:40;21.10;99.90
58096;DHT22;43908;53.038;6.666;2022-09-09T15:41:06;21.00;99.90
58096;DHT22;43908;53.038;6.666;2022-09-09T15:43:31;20.90;99.90
58096;DHT22;43908;53.038;6.666;2022-09-09T15:45:58;20.70;99.90
58096;DHT22;43908;53.038;6.666;2022-09-09T15:48:31;20.70;99.90
58096;DHT22;43908;53.038;6.666;2022-09-09T15:51:03;20.80;99.90
58096;DHT22;43908;53.038;6.666;2022-09-09T15:53:29;20.70;99.90
58096;DHT22;43908;53.038;6.666;2022-09-09T15:55:55;20.50;99.90
58096;DHT22;43908;53.038;6.666;2022-09-09T15:58:21;20.50;99.90
58096;DHT22;43908;53.038;6.666;2022-09-09T16:00:46;20.40;99.90
58096;DHT22;43908;53.038;6.666;2022-09-09T16:03:12;20.40;99.90
58096;DHT22;43908;53.038;6.666;2022-09-09T16:05:38;20.30;99.90
58096;DHT22;43908;53.038;6.666;2022-09-09T16:08:03;20.30;99.90
58096;DHT22;43908;53.038;6.666;2022-09-09T16:10:29;20.30;99.90
58096;DHT22;43908;53.038;6.666;2022-09-09T16:12:56;20.10;99.90
58096;DHT22;43908;53.038;6.666;2022-09-09T16:15:21;20.00;99.90
58096;DHT22;43908;53.038;6.666;2022-09-09T16:17:48;19.90;99.90
58096;DHT22;43908;53.038;6.666;2022-09-09T16:20:14;19.80;99.90
58096;DHT22;43908;53.038;6.666;2022-09-09T16:22:39;19.80;99.90
58096;DHT22;43908;53.038;6.666;2022-09-09T16:25:05;19.60;99.90
58096;DHT22;43908;53.038;6.666;2022-09-09T16:27:31;19.60;99.90
58096;DHT22;43908;53.038;6.666;2022-09-09T16:29:57;19.50;99.90
58096;DHT22;43908;53.038;6.666;2022-09-09T16:32:22;19.40;99.90
58096;DHT22;43908;53.038;6.666;2022-09-09T16:34:48;19.30;99.90
58096;DHT22;43908;53.038;6.666;2022-09-09T16:37:13;19.30;99.90
58096;DHT22;43908;53.038;6.666;2022-09-09T16:39:39;19.30;99.90
58096;DHT22;43908;53.038;6.666;2022-09-09T16:42:04;19.20;99.90
58096;DHT22;43908;53.038;6.666;2022-09-09T16:44:30;19.10;99.90
58096;DHT22;43908;53.038;6.666;2022-09-09T16:46:55;19.10;99.90
58096;DHT22;43908;53.038;6.666;2022-09-09T16:49:21;19.00;99.90
58096;DHT22;43908;53.038;6.666;2022-09-09T16:51:47;18.90;99.90
58096;DHT22;43908;53.038;6.666;2022-09-09T16:54:13;18.90;99.90
58096;DHT22;43908;53.038;6.666;2022-09-09T16:56:40;18.90;99.90
58096;DHT22;43908;53.038;6.666;2022-09-09T16:59:10;18.90;99.90
58096;DHT22;43908;53.038;6.666;2022-09-09T17:01:36;18.90;99.90
58096;DHT22;43908;53.038;6.666;2022-09-09T17:04:03;18.80;99.90
58096;DHT22;43908;53.038;6.666;2022-09-09T17:06:30;18.80;99.90
58096;DHT22;43908;53.038;6.666;2022-09-09T17:08:56;18.80;99.90
58096;DHT22;43908;53.038;6.666;2022-09-09T17:11:22;18.80;99.90
58096;DHT22;43908;53.038;6.666;2022-09-09T17:13:49;18.90;99.90
58096;DHT22;43908;53.038;6.666;2022-09-09T17:16:15;18.90;99.90
58096;DHT22;43908;53.038;6.666;2022-09-09T17:18:41;18.80;99.90
58096;DHT22;43908;53.038;6.666;2022-09-09T17:21:07;18.80;99.90
58096;DHT22;43908;53.038;6.666;2022-09-09T17:23:34;18.80;99.90